createdAt,value
2023-03-07T00:01:26.113Z,76012.97
2023-03-07T00:03:53.940Z,76021.13
2023-03-07T00:06:22.148Z,76021.13
2023-03-07T00:08:51.404Z,76025.22
2023-03-07T00:11:20.202Z,76035.41
2023-03-07T00:13:49.830Z,76045.59
2023-03-07T00:16:19.337Z,76045.59
2023-03-07T00:18:47.214Z,76051.72
2023-03-07T00:21:16.995Z,76055.78
2023-03-07T00:23:46.075Z,76066.00
2023-03-07T00:26:16.212Z,76070.06
2023-03-07T00:28:44.233Z,76072.09
2023-03-07T00:31:13.966Z,76072.09
2023-03-07T00:33:41.949Z,76061.91
2023-03-07T00:36:12.935Z,76057.84
2023-03-07T00:38:42.177Z,76053.75
2023-03-07T00:41:12.104Z,76043.56
2023-03-07T00:43:40.273Z,76033.38
2023-03-07T00:46:09.235Z,76021.13
2023-03-07T00:48:39.699Z,76017.06
2023-03-07T00:51:09.669Z,75998.72
2023-03-07T00:53:38.261Z,76000.75
2023-03-07T00:56:09.929Z,75998.72
2023-03-07T00:58:37.719Z,75998.72
2023-03-07T01:01:07.744Z,75992.59
2023-03-07T01:03:35.764Z,75992.59
2023-03-07T01:06:06.241Z,75996.66
2023-03-07T01:08:34.474Z,75996.66
2023-03-07T01:11:04.397Z,76000.75
2023-03-07T01:13:33.357Z,76002.78
2023-03-07T01:16:09.209Z,76000.75
2023-03-07T01:18:37.210Z,75996.66
2023-03-07T01:21:14.205Z,75992.59
2023-03-07T01:23:42.095Z,75992.59
2023-03-07T01:26:13.439Z,75996.66
2023-03-07T01:28:41.406Z,75992.59
2023-03-07T01:31:09.382Z,75992.59
2023-03-07T01:33:37.208Z,75986.47
2023-03-07T01:36:05.459Z,75976.28
2023-03-07T01:38:34.845Z,75972.22
2023-03-07T01:41:03.252Z,75972.22
2023-03-07T01:43:33.219Z,75974.25
2023-03-07T01:46:42.723Z,75970.16
2023-03-07T01:49:16.897Z,75978.31
2023-03-07T01:51:49.047Z,75972.22
2023-03-07T01:54:21.340Z,75972.22
2023-03-07T01:56:49.317Z,75972.22
2023-03-07T01:59:23.080Z,75968.13
2023-03-07T02:01:52.777Z,75957.94
2023-03-07T02:04:27.051Z,75955.91
2023-03-07T02:06:54.928Z,75949.78
2023-03-07T02:09:28.064Z,75951.81
2023-03-07T02:11:56.888Z,75951.81
2023-03-07T02:14:24.606Z,75955.91
2023-03-07T02:16:53.371Z,75949.78
2023-03-07T02:19:31.054Z,75947.75
2023-03-07T02:22:08.885Z,75951.81
2023-03-07T02:24:44.615Z,75957.94
2023-03-07T02:27:14.551Z,75959.97
2023-03-07T02:29:42.381Z,75951.81
2023-03-07T02:32:10.465Z,75951.81
2023-03-07T02:34:38.470Z,75951.81
2023-03-07T02:37:09.772Z,75953.84
2023-03-07T02:39:40.336Z,75955.91
2023-03-07T02:42:11.186Z,75953.84
2023-03-07T02:44:40.271Z,75964.06
2023-03-07T02:47:09.855Z,75966.09
2023-03-07T02:49:37.590Z,75968.13
2023-03-07T02:52:05.934Z,75968.13
2023-03-07T02:54:33.771Z,75966.09
2023-03-07T02:57:01.509Z,75966.09
2023-03-07T02:59:29.285Z,75976.28
2023-03-07T03:01:58.910Z,75976.28
2023-03-07T03:04:26.751Z,75978.31
2023-03-07T03:06:54.602Z,75980.34
2023-03-07T03:09:22.517Z,75982.41
2023-03-07T03:11:50.296Z,75980.34
2023-03-07T03:14:18.040Z,75988.50
2023-03-07T03:16:45.827Z,75996.66
2023-03-07T03:19:14.899Z,75992.59
2023-03-07T03:21:43.841Z,75986.47
2023-03-07T03:24:12.131Z,75998.72
2023-03-07T03:26:40.159Z,75994.63
2023-03-07T03:29:08.322Z,75992.59
2023-03-07T03:31:36.167Z,75988.50
2023-03-07T03:34:05.628Z,75988.50
2023-03-07T03:36:34.883Z,75992.59
2023-03-07T03:39:02.706Z,75992.59
2023-03-07T03:41:30.421Z,75996.66
2023-03-07T03:43:58.336Z,75996.66
2023-03-07T03:46:26.965Z,75994.63
2023-03-07T03:48:55.709Z,75992.59
2023-03-07T03:51:24.566Z,75994.63
2023-03-07T03:53:54.474Z,75998.72
2023-03-07T03:56:24.572Z,75996.66
2023-03-07T03:58:54.069Z,76002.78
2023-03-07T04:01:23.702Z,75996.66
2023-03-07T04:03:53.425Z,75992.59
2023-03-07T04:06:23.482Z,75996.66
2023-03-07T04:08:53.982Z,75994.63
2023-03-07T04:11:22.512Z,75996.66
2023-03-07T04:13:50.335Z,75994.63
2023-03-07T04:16:18.912Z,75992.59
2023-03-07T04:18:47.067Z,75992.59
2023-03-07T04:21:15.071Z,75994.63
2023-03-07T04:23:42.832Z,75998.72
2023-03-07T04:26:13.320Z,75998.72
2023-03-07T04:28:45.748Z,76000.75
2023-03-07T04:31:14.941Z,76004.81
2023-03-07T04:33:43.349Z,76004.81
2023-03-07T04:36:11.528Z,76012.97
2023-03-07T04:38:40.577Z,76015.03
2023-03-07T04:41:08.351Z,76012.97
2023-03-07T04:43:37.469Z,76012.97
2023-03-07T04:46:05.576Z,76008.91
2023-03-07T04:48:33.351Z,76017.06
2023-03-07T04:51:01.098Z,76021.13
2023-03-07T04:53:28.946Z,76027.25
2023-03-07T04:55:59.596Z,76025.22
2023-03-07T04:58:27.626Z,76021.13
2023-03-07T05:00:57.794Z,76023.19
2023-03-07T05:03:29.544Z,76027.25
2023-03-07T05:05:57.390Z,76021.13
2023-03-07T05:08:25.100Z,76025.22
2023-03-07T05:10:52.828Z,76023.19
2023-03-07T05:13:20.608Z,76023.19
2023-03-07T05:15:52.512Z,76025.22
2023-03-07T05:18:22.335Z,76031.31
2023-03-07T05:20:51.637Z,76033.38
2023-03-07T05:23:20.215Z,76037.44
2023-03-07T05:25:47.999Z,76033.38
2023-03-07T05:28:16.897Z,76037.44
2023-03-07T05:30:45.018Z,76041.53
2023-03-07T05:33:12.939Z,76033.38
2023-03-07T05:35:42.162Z,76031.31
2023-03-07T05:38:10.001Z,76037.44
2023-03-07T05:40:38.565Z,76033.38
2023-03-07T05:43:06.531Z,76033.38
2023-03-07T05:45:34.318Z,76029.28
2023-03-07T05:48:02.122Z,76029.28
2023-03-07T05:50:30.654Z,76031.31
2023-03-07T05:52:59.720Z,76017.06
2023-03-07T05:55:27.560Z,76025.22
2023-03-07T05:57:55.361Z,76015.03
2023-03-07T06:00:24.020Z,76015.03
2023-03-07T06:02:51.804Z,76012.97
2023-03-07T06:05:19.639Z,76017.06
2023-03-07T06:07:47.453Z,76008.91
2023-03-07T06:10:16.660Z,76000.75
2023-03-07T06:12:44.444Z,76008.91
2023-03-07T06:15:12.481Z,76004.81
2023-03-07T06:17:40.820Z,76000.75
2023-03-07T06:20:09.984Z,75996.66
2023-03-07T06:22:38.722Z,75988.50
2023-03-07T06:25:07.714Z,75978.31
2023-03-07T06:27:37.700Z,75970.16
2023-03-07T06:30:07.429Z,75964.06
2023-03-07T06:32:35.251Z,75955.91
2023-03-07T06:35:03.361Z,75955.91
2023-03-07T06:37:31.587Z,75951.81
2023-03-07T06:39:59.383Z,75947.75
2023-03-07T06:42:27.179Z,75945.69
2023-03-07T06:44:56.270Z,75935.50
2023-03-07T06:47:24.108Z,75927.34
2023-03-07T06:49:52.303Z,75919.19
2023-03-07T06:52:20.121Z,75915.13
2023-03-07T06:54:47.891Z,75906.97
2023-03-07T06:57:15.815Z,75902.88
2023-03-07T06:59:43.544Z,75894.75
2023-03-07T07:02:15.555Z,75890.66
2023-03-07T07:04:43.380Z,75870.28
2023-03-07T07:07:11.547Z,75862.13
2023-03-07T07:09:39.305Z,75853.97
2023-03-07T07:12:07.714Z,75831.53
2023-03-07T07:14:35.546Z,75815.22
2023-03-07T07:17:03.375Z,75794.84
2023-03-07T07:19:32.538Z,75772.41
2023-03-07T07:22:00.312Z,75762.22
2023-03-07T07:24:28.104Z,75739.81
2023-03-07T07:26:56.719Z,75711.25
2023-03-07T07:29:24.914Z,75690.88
2023-03-07T07:31:52.864Z,75662.34
2023-03-07T07:34:20.658Z,75646.03
2023-03-07T07:36:50.696Z,75617.50
2023-03-07T07:39:18.431Z,75605.25
2023-03-07T07:41:46.355Z,75568.56
2023-03-07T07:44:14.472Z,75554.28
2023-03-07T07:46:42.252Z,75523.72
2023-03-07T07:49:10.025Z,75491.09
2023-03-07T07:51:39.829Z,75474.78
2023-03-07T07:54:09.975Z,75474.78
2023-03-07T07:56:37.789Z,75446.25
2023-03-07T07:59:05.570Z,75434.03
2023-03-07T08:01:33.802Z,75405.50
2023-03-07T08:04:01.688Z,75387.13
2023-03-07T08:06:30.766Z,75405.50
2023-03-07T08:09:00.142Z,75393.25
2023-03-07T08:11:29.510Z,75393.25
2023-03-07T08:13:57.319Z,75376.94
2023-03-07T08:16:26.115Z,75354.53
2023-03-07T08:18:55.852Z,75370.84
2023-03-07T08:21:24.268Z,75348.41
2023-03-07T08:23:52.320Z,75340.25
2023-03-07T08:26:20.125Z,75319.88
2023-03-07T08:28:49.390Z,75311.72
2023-03-07T08:31:19.139Z,75283.19
2023-03-07T08:33:48.208Z,75254.66
2023-03-07T08:36:16.493Z,75226.13
2023-03-07T08:38:44.526Z,75224.06
2023-03-07T08:41:12.345Z,75232.22
2023-03-07T08:43:40.216Z,75217.97
2023-03-07T08:46:09.397Z,75173.13
2023-03-07T08:48:37.220Z,75167.00
2023-03-07T08:51:07.399Z,75187.38
2023-03-07T08:53:35.306Z,75169.03
2023-03-07T08:56:07.182Z,75128.28
2023-03-07T08:58:34.933Z,75136.44
2023-03-07T09:01:02.860Z,75158.84
2023-03-07T09:03:32.285Z,75173.13
2023-03-07T09:06:00.156Z,75162.94
2023-03-07T09:08:28.250Z,75150.69
2023-03-07T09:10:56.900Z,75148.66
2023-03-07T09:13:24.616Z,75150.69
2023-03-07T09:15:52.547Z,75142.53
2023-03-07T09:18:22.692Z,75124.19
2023-03-07T09:20:51.892Z,75109.94
2023-03-07T09:23:19.723Z,75130.31
2023-03-07T09:25:47.467Z,75107.91
2023-03-07T09:28:15.522Z,75099.75
2023-03-07T09:30:43.511Z,75095.66
2023-03-07T09:33:11.246Z,75101.78
2023-03-07T09:35:39.792Z,75087.50
2023-03-07T09:38:08.962Z,75099.75
2023-03-07T09:40:36.853Z,75095.66
2023-03-07T09:43:11.559Z,75095.66
2023-03-07T09:46:00.982Z,75093.63
2023-03-07T09:49:06.133Z,75083.44
2023-03-07T09:51:40.066Z,75097.72
2023-03-07T09:54:13.536Z,75056.94
2023-03-07T09:56:45.491Z,75036.56
2023-03-07T09:59:23.719Z,75014.13
2023-03-07T10:01:57.541Z,74989.69
2023-03-07T10:04:33.976Z,74993.75
2023-03-07T10:07:05.082Z,75008.03
2023-03-07T10:09:34.708Z,74989.69
2023-03-07T10:12:26.056Z,74985.59
2023-03-07T10:15:21.137Z,75003.94
2023-03-07T10:18:13.206Z,74969.31
2023-03-07T10:20:46.644Z,74957.06
2023-03-07T10:23:45.868Z,74893.91
2023-03-07T10:26:22.571Z,74877.59
2023-03-07T10:28:50.449Z,74877.59
2023-03-07T10:31:23.471Z,74840.91
2023-03-07T10:33:54.550Z,74861.28
2023-03-07T10:36:24.047Z,74834.78
2023-03-07T10:39:01.188Z,74806.25
2023-03-07T10:41:32.508Z,74834.78
2023-03-07T10:44:00.393Z,74857.22
2023-03-07T10:46:30.993Z,74863.31
2023-03-07T10:49:10.435Z,74869.44
2023-03-07T10:51:51.660Z,74875.56
2023-03-07T10:54:22.360Z,74873.50
2023-03-07T10:57:13.085Z,74887.78
2023-03-07T10:59:43.579Z,74859.25
2023-03-07T11:02:31.452Z,74863.31
2023-03-07T11:05:00.246Z,74863.31
2023-03-07T11:07:31.330Z,74851.09
2023-03-07T11:10:00.984Z,74824.59
2023-03-07T11:12:32.007Z,74777.72
2023-03-07T11:15:11.826Z,74765.50
2023-03-07T11:17:43.275Z,74792.00
2023-03-07T11:20:21.213Z,74783.84
2023-03-07T11:22:49.708Z,74796.06
2023-03-07T11:25:21.777Z,74761.41
2023-03-07T11:27:53.106Z,74777.72
2023-03-07T11:30:25.139Z,74753.28
2023-03-07T11:33:09.203Z,74761.41
2023-03-07T11:35:54.100Z,74724.75
2023-03-07T11:38:46.872Z,74692.13
2023-03-07T11:41:25.086Z,74708.44
2023-03-07T11:44:12.567Z,74722.69
2023-03-07T11:46:52.870Z,74688.06
2023-03-07T11:49:34.592Z,74667.69
2023-03-07T11:52:15.785Z,74681.94
2023-03-07T11:54:54.199Z,74643.22
2023-03-07T11:57:36.807Z,74641.19
2023-03-07T12:00:23.942Z,74602.47
2023-03-07T12:03:27.977Z,74590.22
2023-03-07T12:06:15.543Z,74612.66
2023-03-07T12:08:55.938Z,74610.63
2023-03-07T12:11:40.147Z,74639.13
2023-03-07T12:14:19.199Z,74659.53
2023-03-07T12:16:58.353Z,74643.22
2023-03-07T12:19:43.346Z,74631.00
2023-03-07T12:22:27.686Z,74637.09
2023-03-07T12:25:13.132Z,74635.06
2023-03-07T12:27:46.792Z,74614.69
2023-03-07T12:30:19.453Z,74643.22
2023-03-07T12:32:50.831Z,74659.53
2023-03-07T12:35:25.675Z,74614.69
2023-03-07T12:37:59.766Z,74594.31
2023-03-07T12:40:33.713Z,74604.50
2023-03-07T12:43:11.990Z,74604.50
2023-03-07T12:45:48.432Z,74600.41
2023-03-07T12:48:25.519Z,74622.84
2023-03-07T12:50:59.971Z,74647.28
2023-03-07T12:53:36.095Z,74651.38
2023-03-07T12:56:09.513Z,74661.56
2023-03-07T12:58:43.665Z,74692.13
2023-03-07T13:01:15.387Z,74694.16
2023-03-07T13:03:51.912Z,74677.88
2023-03-07T13:06:23.487Z,74661.56
2023-03-07T13:08:54.179Z,74639.13
2023-03-07T13:11:23.676Z,74622.84
2023-03-07T13:13:58.322Z,74620.81
2023-03-07T13:16:47.698Z,74596.34
2023-03-07T13:20:03.466Z,74582.09
2023-03-07T13:23:11.988Z,74569.84
2023-03-07T13:26:10.985Z,74580.03
2023-03-07T13:28:51.499Z,74578.00
2023-03-07T13:31:30.386Z,74586.16
2023-03-07T13:34:39.212Z,74598.38
2023-03-07T13:37:52.535Z,74590.22
2023-03-07T13:40:48.676Z,74604.50
2023-03-07T13:43:59.739Z,74586.16
2023-03-07T13:46:54.415Z,74563.75
2023-03-07T13:49:42.311Z,74549.47
2023-03-07T13:52:34.096Z,74559.66
2023-03-07T13:55:04.270Z,74559.66
2023-03-07T13:57:41.549Z,74571.91
2023-03-07T14:00:29.078Z,74571.91
2023-03-07T14:02:57.393Z,74573.94
2023-03-07T14:05:25.720Z,74582.09
2023-03-07T14:07:54.057Z,74598.38
2023-03-07T14:10:25.581Z,74612.66
2023-03-07T14:13:16.699Z,74602.47
2023-03-07T14:15:55.690Z,74578.00
2023-03-07T14:18:34.640Z,74561.69
2023-03-07T14:21:10.902Z,74555.59
2023-03-07T14:24:00.578Z,74537.25
2023-03-07T14:26:33.477Z,74535.22
2023-03-07T14:29:04.622Z,74525.03
2023-03-07T14:31:39.121Z,74537.25
2023-03-07T14:34:17.894Z,74551.50
2023-03-07T14:36:47.515Z,74543.34
2023-03-07T14:39:15.951Z,74545.41
2023-03-07T14:41:51.238Z,74545.41
2023-03-07T14:44:45.324Z,74549.47
2023-03-07T14:47:28.237Z,74557.63
2023-03-07T14:50:06.413Z,74586.16
2023-03-07T14:52:37.927Z,74565.78
2023-03-07T14:55:07.874Z,74594.31
2023-03-07T14:57:39.072Z,74592.28
2023-03-07T15:00:16.707Z,74596.34
2023-03-07T15:02:49.038Z,74582.09
2023-03-07T15:05:18.779Z,74561.69
2023-03-07T15:07:48.049Z,74590.22
2023-03-07T15:10:17.943Z,74604.50
2023-03-07T15:12:50.888Z,74614.69
2023-03-07T15:15:28.418Z,74598.38
2023-03-07T15:17:59.260Z,74610.63
2023-03-07T15:20:28.540Z,74614.69
2023-03-07T15:23:09.324Z,74616.72
2023-03-07T15:25:39.159Z,74606.53
2023-03-07T15:28:17.864Z,74592.28
2023-03-07T15:30:53.202Z,74592.28
2023-03-07T15:33:27.543Z,74592.28
2023-03-07T15:36:16.394Z,74602.47
2023-03-07T15:38:45.751Z,74606.53
2023-03-07T15:41:27.700Z,74618.75
2023-03-07T15:44:18.268Z,74631.00
2023-03-07T15:46:49.512Z,74639.13
2023-03-07T15:49:27.364Z,74637.09
2023-03-07T15:51:58.286Z,74643.22
2023-03-07T15:54:39.608Z,74655.44
2023-03-07T15:57:16.047Z,74663.59
2023-03-07T15:59:50.055Z,74683.97
2023-03-07T16:02:45.152Z,74688.06
2023-03-07T16:05:43.966Z,74704.34
2023-03-07T16:08:14.461Z,74712.50
2023-03-07T16:10:50.231Z,74716.59
2023-03-07T16:13:21.223Z,74732.88
2023-03-07T16:16:00.394Z,74749.19
2023-03-07T16:18:31.984Z,74751.22
2023-03-07T16:20:59.904Z,74749.19
2023-03-07T16:23:31.184Z,74765.50
2023-03-07T16:26:00.211Z,74785.88
2023-03-07T16:28:28.913Z,74798.09
2023-03-07T16:30:56.670Z,74806.25
2023-03-07T16:33:24.409Z,74826.63
2023-03-07T16:35:53.631Z,74840.91
2023-03-07T16:38:21.441Z,74853.13
2023-03-07T16:40:49.597Z,74867.41
2023-03-07T16:43:33.528Z,74873.50
2023-03-07T16:46:02.497Z,74889.81
2023-03-07T16:48:30.326Z,74908.16
2023-03-07T16:50:59.978Z,74924.47
2023-03-07T16:53:27.774Z,74944.84
2023-03-07T16:55:56.933Z,74961.16
2023-03-07T16:58:26.412Z,74969.31
2023-03-07T17:00:54.675Z,74983.56
2023-03-07T17:03:23.046Z,74997.84
2023-03-07T17:05:50.800Z,75014.13
2023-03-07T17:08:19.889Z,75020.25
2023-03-07T17:10:47.729Z,75038.59
2023-03-07T17:13:18.523Z,75040.63
2023-03-07T17:15:47.125Z,75050.81
2023-03-07T17:18:14.973Z,75063.06
2023-03-07T17:20:43.138Z,75069.16
2023-03-07T17:23:10.924Z,75095.66
2023-03-07T17:25:40.233Z,75111.97
2023-03-07T17:28:11.794Z,75132.34
2023-03-07T17:30:42.908Z,75148.66
2023-03-07T17:33:11.530Z,75150.69
2023-03-07T17:35:39.385Z,75162.94
2023-03-07T17:38:07.807Z,75173.13
2023-03-07T17:40:35.616Z,75193.50
2023-03-07T17:43:04.838Z,75201.66
2023-03-07T17:45:32.659Z,75213.88
2023-03-07T17:48:00.503Z,75215.91
2023-03-07T17:50:28.365Z,75234.28
2023-03-07T17:52:56.384Z,75242.41
2023-03-07T17:55:25.448Z,75260.75
2023-03-07T17:57:53.757Z,75275.03
2023-03-07T18:00:23.839Z,75289.31
2023-03-07T18:02:52.148Z,75287.25
2023-03-07T18:05:20.366Z,75295.41
2023-03-07T18:07:49.314Z,75299.50
2023-03-07T18:10:17.406Z,75295.41
2023-03-07T18:12:46.012Z,75299.50
2023-03-07T18:15:15.473Z,75301.53
2023-03-07T18:17:48.955Z,75299.50
2023-03-07T18:20:18.755Z,75299.50
2023-03-07T18:22:47.149Z,75305.59
2023-03-07T18:25:16.581Z,75303.56
2023-03-07T18:27:45.449Z,75307.66
2023-03-07T18:30:14.615Z,75309.69
2023-03-07T18:32:43.761Z,75307.66
2023-03-07T18:35:15.408Z,75315.81
2023-03-07T18:37:45.218Z,75319.88
2023-03-07T18:40:13.962Z,75321.91
2023-03-07T18:42:42.432Z,75315.81
2023-03-07T18:45:11.666Z,75311.72
2023-03-07T18:47:39.416Z,75307.66
2023-03-07T18:50:11.008Z,75311.72
2023-03-07T18:52:38.871Z,75309.69
2023-03-07T18:55:07.394Z,75309.69
2023-03-07T18:57:35.159Z,75313.75
2023-03-07T19:00:03.962Z,75319.88
2023-03-07T19:02:31.873Z,75313.75
2023-03-07T19:04:59.644Z,75311.72
2023-03-07T19:07:30.034Z,75313.75
2023-03-07T19:09:57.992Z,75311.72
2023-03-07T19:12:25.799Z,75311.72
2023-03-07T19:14:53.553Z,75315.81
2023-03-07T19:17:21.958Z,75323.94
2023-03-07T19:19:52.915Z,75336.19
2023-03-07T19:22:25.887Z,75330.06
2023-03-07T19:24:56.186Z,75336.19
2023-03-07T19:27:27.990Z,75336.19
2023-03-07T19:29:55.844Z,75336.19
2023-03-07T19:32:23.628Z,75336.19
2023-03-07T19:34:51.516Z,75344.34
2023-03-07T19:37:19.412Z,75358.59
2023-03-07T19:39:47.184Z,75372.88
2023-03-07T19:42:16.345Z,75372.88
2023-03-07T19:44:44.095Z,75364.72
2023-03-07T19:47:11.829Z,75368.78
2023-03-07T19:49:39.652Z,75364.72
2023-03-07T19:52:07.636Z,75356.56
2023-03-07T19:54:35.356Z,75344.34
2023-03-07T19:57:03.188Z,75340.25
2023-03-07T19:59:32.267Z,75344.34
2023-03-07T20:02:00.090Z,75356.56
2023-03-07T20:04:28.149Z,75356.56
2023-03-07T20:06:55.907Z,75356.56
2023-03-07T20:09:23.660Z,75366.75
2023-03-07T20:11:51.729Z,75372.88
2023-03-07T20:14:19.524Z,75372.88
2023-03-07T20:16:48.686Z,75376.94
2023-03-07T20:19:16.536Z,75374.91
2023-03-07T20:21:49.835Z,75385.09
2023-03-07T20:24:18.487Z,75393.25
2023-03-07T20:26:47.395Z,75409.56
2023-03-07T20:29:15.289Z,75415.69
2023-03-07T20:31:43.098Z,75423.84
2023-03-07T20:34:12.683Z,75425.88
2023-03-07T20:36:40.489Z,75432.00
2023-03-07T20:39:13.101Z,75436.06
2023-03-07T20:41:42.083Z,75446.25
2023-03-07T20:44:12.871Z,75448.28
2023-03-07T20:46:41.314Z,75454.41
2023-03-07T20:49:09.187Z,75458.50
2023-03-07T20:51:39.197Z,75450.34
2023-03-07T20:54:08.760Z,75454.41
2023-03-07T20:56:38.413Z,75458.50
2023-03-07T20:59:07.091Z,75462.56
2023-03-07T21:01:36.389Z,75462.56
2023-03-07T21:04:06.410Z,75470.72
2023-03-07T21:06:34.528Z,75458.50
2023-03-07T21:09:06.389Z,75450.34
2023-03-07T21:11:34.664Z,75423.84
2023-03-07T21:14:02.655Z,75425.88
2023-03-07T21:16:30.909Z,75419.75
2023-03-07T21:19:01.310Z,75419.75
2023-03-07T21:21:30.346Z,75421.78
2023-03-07T21:23:58.175Z,75429.94
2023-03-07T21:26:29.061Z,75452.38
2023-03-07T21:28:57.892Z,75450.34
2023-03-07T21:31:27.187Z,75452.38
2023-03-07T21:33:56.524Z,75450.34
2023-03-07T21:36:26.997Z,75458.50
2023-03-07T21:38:55.608Z,75468.69
2023-03-07T21:41:25.036Z,75478.88
2023-03-07T21:43:56.252Z,75489.06
2023-03-07T21:46:24.931Z,75499.25
2023-03-07T21:48:53.178Z,75515.56
2023-03-07T21:51:21.290Z,75535.94
2023-03-07T21:53:49.232Z,75558.38
2023-03-07T21:56:18.351Z,75576.72
2023-03-07T21:58:49.199Z,75580.78
2023-03-07T22:01:20.945Z,75586.91
2023-03-07T22:03:49.069Z,75588.94
2023-03-07T22:06:17.422Z,75593.03
2023-03-07T22:08:45.384Z,75593.03
2023-03-07T22:11:14.242Z,75586.91
2023-03-07T22:13:43.285Z,75597.09
2023-03-07T22:16:13.324Z,75605.25
2023-03-07T22:18:42.539Z,75613.41
2023-03-07T22:21:13.536Z,75617.50
2023-03-07T22:23:41.901Z,75621.56
2023-03-07T22:26:11.970Z,75629.72
2023-03-07T22:28:40.630Z,75621.56
2023-03-07T22:31:11.175Z,75627.69
2023-03-07T22:33:39.762Z,75623.59
2023-03-07T22:36:12.365Z,75627.69
2023-03-07T22:38:41.673Z,75617.50
2023-03-07T22:41:12.057Z,75617.50
2023-03-07T22:43:40.073Z,75605.25
2023-03-07T22:46:08.634Z,75599.13
2023-03-07T22:48:36.643Z,75597.09
2023-03-07T22:51:04.650Z,75597.09
2023-03-07T22:53:35.533Z,75593.03
2023-03-07T22:56:03.349Z,75593.03
2023-03-07T22:58:31.280Z,75582.84
2023-03-07T23:00:58.997Z,75576.72
2023-03-07T23:03:26.806Z,75580.78
2023-03-07T23:06:02.026Z,75576.72
2023-03-07T23:08:29.742Z,75584.88
2023-03-07T23:11:03.014Z,75586.91
2023-03-07T23:13:30.965Z,75584.88
2023-03-07T23:15:59.476Z,75588.94
2023-03-07T23:18:27.278Z,75593.03
2023-03-07T23:20:55.142Z,75603.22
2023-03-07T23:23:22.912Z,75597.09
2023-03-07T23:25:50.644Z,75595.06
2023-03-07T23:28:19.732Z,75593.03
2023-03-07T23:30:47.962Z,75597.09
2023-03-07T23:33:15.929Z,75597.09
2023-03-07T23:35:43.774Z,75605.25
2023-03-07T23:38:13.129Z,75609.34
2023-03-07T23:40:40.899Z,75617.50
2023-03-07T23:43:09.423Z,75613.41
2023-03-07T23:45:38.556Z,75601.19
2023-03-07T23:48:06.685Z,75593.03
2023-03-07T23:50:34.462Z,75588.94
2023-03-07T23:53:02.237Z,75588.94
2023-03-07T23:55:29.970Z,75556.34
2023-03-07T23:57:57.691Z,75552.25
